sensor_id;sensor_type;location;lat;lon;timestamp;pressure;altitude;pressure_sealevel;temperature;humidity
79174;BME280;68599;49.142;9.124;2023-03-23T00:02:11;99049.96;;;14.69;44.66
79174;BME280;68599;49.142;9.124;2023-03-23T00:04:37;99049.43;;;14.64;45.03
79174;BME280;68599;49.142;9.124;2023-03-23T00:07:02;99046.10;;;14.66;44.66
79174;BME280;68599;49.142;9.124;2023-03-23T00:09:28;99045.48;;;14.68;44.71
79174;BME280;68599;49.142;9.124;2023-03-23T00:11:55;99045.00;;;14.66;44.77
79174;BME280;68599;49.142;9.124;2023-03-23T00:14:23;99048.41;;;14.63;44.70
79174;BME280;68599;49.142;9.124;2023-03-23T00:16:50;99047.56;;;14.62;44.56
79174;BME280;68599;49.142;9.124;2023-03-23T00:19:16;99050.91;;;14.64;44.47
79174;BME280;68599;49.142;9.124;2023-03-23T00:21:44;99051.92;;;14.61;44.71
79174;BME280;68599;49.142;9.124;2023-03-23T00:24:13;99049.61;;;14.60;44.67
79174;BME280;68599;49.142;9.124;2023-03-23T00:26:42;99050.75;;;14.59;44.93
79174;BME280;68599;49.142;9.124;2023-03-23T00:29:17;99046.01;;;14.60;44.84
79174;BME280;68599;49.142;9.124;2023-03-23T00:31:45;99037.39;;;14.53;45.49
79174;BME280;68599;49.142;9.124;2023-03-23T00:34:16;99034.51;;;14.49;45.53
79174;BME280;68599;49.142;9.124;2023-03-23T00:36:47;99030.27;;;14.42;45.99
79174;BME280;68599;49.142;9.124;2023-03-23T00:39:12;99026.98;;;14.33;46.93
79174;BME280;68599;49.142;9.124;2023-03-23T00:41:41;99026.67;;;14.24;47.12
79174;BME280;68599;49.142;9.124;2023-03-23T00:44:07;99022.23;;;14.21;47.41
79174;BME280;68599;49.142;9.124;2023-03-23T00:46:34;99019.05;;;14.15;47.69
79174;BME280;68599;49.142;9.124;2023-03-23T00:48:59;99018.69;;;14.06;48.03
79174;BME280;68599;49.142;9.124;2023-03-23T00:51:25;99013.73;;;13.99;48.67
79174;BME280;68599;49.142;9.124;2023-03-23T00:53:51;99006.89;;;13.90;49.29
79174;BME280;68599;49.142;9.124;2023-03-23T00:56:16;99006.35;;;13.80;49.88
79174;BME280;68599;49.142;9.124;2023-03-23T00:58:42;98999.41;;;13.73;50.27
79174;BME280;68599;49.142;9.124;2023-03-23T01:01:08;98997.97;;;13.77;50.21
79174;BME280;68599;49.142;9.124;2023-03-23T01:03:34;98995.53;;;13.70;50.75
79174;BME280;68599;49.142;9.124;2023-03-23T01:06:10;98994.08;;;13.66;50.87
79174;BME280;68599;49.142;9.124;2023-03-23T01:08:39;98995.19;;;13.56;51.67
79174;BME280;68599;49.142;9.124;2023-03-23T01:11:13;98991.60;;;13.51;51.70
79174;BME280;68599;49.142;9.124;2023-03-23T01:13:39;98994.29;;;13.51;51.77
79174;BME280;68599;49.142;9.124;2023-03-23T01:16:06;98994.88;;;13.50;51.60
79174;BME280;68599;49.142;9.124;2023-03-23T01:18:31;98998.67;;;13.50;51.95
79174;BME280;68599;49.142;9.124;2023-03-23T01:20:57;98995.88;;;13.48;51.88
79174;BME280;68599;49.142;9.124;2023-03-23T01:23:22;98994.42;;;13.43;52.29
79174;BME280;68599;49.142;9.124;2023-03-23T01:25:47;98993.41;;;13.42;52.35
79174;BME280;68599;49.142;9.124;2023-03-23T01:28:14;98982.91;;;13.41;52.33
79174;BME280;68599;49.142;9.124;2023-03-23T01:30:40;98981.77;;;13.38;52.67
79174;BME280;68599;49.142;9.124;2023-03-23T01:33:05;98983.18;;;13.35;52.95
79174;BME280;68599;49.142;9.124;2023-03-23T01:35:30;98982.63;;;13.35;52.80
79174;BME280;68599;49.142;9.124;2023-03-23T01:37:56;98980.77;;;13.32;53.04
79174;BME280;68599;49.142;9.124;2023-03-23T01:40:21;98975.50;;;13.32;52.92
79174;BME280;68599;49.142;9.124;2023-03-23T01:42:46;98969.16;;;13.37;52.69
79174;BME280;68599;49.142;9.124;2023-03-23T01:45:33;98963.59;;;13.41;52.59
79174;BME280;68599;49.142;9.124;2023-03-23T01:50:43;98962.34;;;13.45;52.71
79174;BME280;68599;49.142;9.124;2023-03-23T01:53:10;98956.78;;;13.39;53.16
79174;BME280;68599;49.142;9.124;2023-03-23T01:55:38;98960.52;;;13.41;53.26
79174;BME280;68599;49.142;9.124;2023-03-23T01:58:04;98961.70;;;13.38;53.33
79174;BME280;68599;49.142;9.124;2023-03-23T02:00:30;98966.16;;;13.40;53.18
79174;BME280;68599;49.142;9.124;2023-03-23T02:02:57;98965.02;;;13.41;52.79
79174;BME280;68599;49.142;9.124;2023-03-23T02:05:35;98969.11;;;13.43;53.04
79174;BME280;68599;49.142;9.124;2023-03-23T02:08:04;98965.73;;;13.42;53.14
79174;BME280;68599;49.142;9.124;2023-03-23T02:10:32;98965.10;;;13.39;53.27
79174;BME280;68599;49.142;9.124;2023-03-23T02:12:58;98965.77;;;13.36;53.43
79174;BME280;68599;49.142;9.124;2023-03-23T02:15:38;98964.40;;;13.29;53.74
79174;BME280;68599;49.142;9.124;2023-03-23T02:18:29;98963.98;;;13.21;54.34
79174;BME280;68599;49.142;9.124;2023-03-23T02:21:20;98961.83;;;13.16;54.67
79174;BME280;68599;49.142;9.124;2023-03-23T02:26:51;98951.96;;;13.08;55.03
79174;BME280;68599;49.142;9.124;2023-03-23T02:35:01;98931.12;;;13.00;55.21
79174;BME280;68599;49.142;9.124;2023-03-23T02:37:36;98925.01;;;12.99;55.15
79174;BME280;68599;49.142;9.124;2023-03-23T02:40:06;98922.53;;;13.02;54.84
79174;BME280;68599;49.142;9.124;2023-03-23T02:42:38;98922.23;;;13.01;54.87
79174;BME280;68599;49.142;9.124;2023-03-23T02:45:08;98914.80;;;13.02;54.93
79174;BME280;68599;49.142;9.124;2023-03-23T02:47:37;98905.88;;;12.98;54.98
79174;BME280;68599;49.142;9.124;2023-03-23T02:50:05;98909.30;;;13.03;54.57
79174;BME280;68599;49.142;9.124;2023-03-23T02:52:34;98909.08;;;13.09;54.25
79174;BME280;68599;49.142;9.124;2023-03-23T02:55:02;98909.17;;;13.12;54.27
79174;BME280;68599;49.142;9.124;2023-03-23T02:57:30;98908.05;;;13.12;54.23
79174;BME280;68599;49.142;9.124;2023-03-23T02:59:56;98902.46;;;13.12;54.27
79174;BME280;68599;49.142;9.124;2023-03-23T03:02:34;98904.20;;;13.14;54.11
79174;BME280;68599;49.142;9.124;2023-03-23T03:05:04;98899.35;;;13.18;53.98
79174;BME280;68599;49.142;9.124;2023-03-23T03:07:41;98898.48;;;13.17;54.02
79174;BME280;68599;49.142;9.124;2023-03-23T03:10:25;98898.73;;;13.15;54.16
79174;BME280;68599;49.142;9.124;2023-03-23T03:13:07;98900.02;;;13.14;54.40
79174;BME280;68599;49.142;9.124;2023-03-23T03:15:42;98903.90;;;13.12;54.31
79174;BME280;68599;49.142;9.124;2023-03-23T03:18:18;98903.64;;;13.14;54.15
79174;BME280;68599;49.142;9.124;2023-03-23T03:20:56;98897.65;;;13.15;54.23
79174;BME280;68599;49.142;9.124;2023-03-23T03:23:26;98894.77;;;13.14;54.17
79174;BME280;68599;49.142;9.124;2023-03-23T03:25:53;98893.73;;;13.13;54.00
79174;BME280;68599;49.142;9.124;2023-03-23T03:28:23;98890.66;;;13.18;53.56
79174;BME280;68599;49.142;9.124;2023-03-23T03:30:53;98894.15;;;13.21;53.29
79174;BME280;68599;49.142;9.124;2023-03-23T03:33:21;98893.83;;;13.25;53.25
79174;BME280;68599;49.142;9.124;2023-03-23T03:35:53;98893.69;;;13.24;53.21
79174;BME280;68599;49.142;9.124;2023-03-23T03:38:20;98893.77;;;13.22;53.35
79174;BME280;68599;49.142;9.124;2023-03-23T03:40:45;98895.39;;;13.22;53.30
79174;BME280;68599;49.142;9.124;2023-03-23T03:43:11;98891.74;;;13.23;53.30
79174;BME280;68599;49.142;9.124;2023-03-23T03:45:36;98890.88;;;13.22;53.15
79174;BME280;68599;49.142;9.124;2023-03-23T03:48:02;98895.52;;;13.24;52.91
79174;BME280;68599;49.142;9.124;2023-03-23T03:50:28;98891.75;;;13.27;52.84
79174;BME280;68599;49.142;9.124;2023-03-23T03:52:53;98887.63;;;13.26;52.97
79174;BME280;68599;49.142;9.124;2023-03-23T03:55:19;98889.16;;;13.29;52.73
79174;BME280;68599;49.142;9.124;2023-03-23T03:57:44;98891.89;;;13.28;52.70
79174;BME280;68599;49.142;9.124;2023-03-23T04:00:10;98891.73;;;13.27;53.12
79174;BME280;68599;49.142;9.124;2023-03-23T04:02:43;98889.60;;;13.27;53.09
79174;BME280;68599;49.142;9.124;2023-03-23T04:05:09;98888.94;;;13.30;52.98
79174;BME280;68599;49.142;9.124;2023-03-23T04:07:36;98892.07;;;13.33;53.04
79174;BME280;68599;49.142;9.124;2023-03-23T04:10:07;98892.02;;;13.34;52.91
79174;BME280;68599;49.142;9.124;2023-03-23T04:12:34;98897.31;;;13.37;52.91
79174;BME280;68599;49.142;9.124;2023-03-23T04:15:00;98892.92;;;13.43;52.81
79174;BME280;68599;49.142;9.124;2023-03-23T04:17:25;98892.62;;;13.46;52.72
79174;BME280;68599;49.142;9.124;2023-03-23T04:19:52;98894.20;;;13.47;52.71
79174;BME280;68599;49.142;9.124;2023-03-23T04:22:17;98888.89;;;13.48;52.88
79174;BME280;68599;49.142;9.124;2023-03-23T04:24:42;98886.13;;;13.45;52.87
79174;BME280;68599;49.142;9.124;2023-03-23T04:27:08;98886.12;;;13.50;52.51
79174;BME280;68599;49.142;9.124;2023-03-23T04:29:34;98887.90;;;13.50;52.50
79174;BME280;68599;49.142;9.124;2023-03-23T04:31:59;98885.71;;;13.55;52.18
79174;BME280;68599;49.142;9.124;2023-03-23T04:34:26;98883.69;;;13.56;52.42
79174;BME280;68599;49.142;9.124;2023-03-23T04:36:51;98879.07;;;13.58;52.37
79174;BME280;68599;49.142;9.124;2023-03-23T04:39:18;98882.77;;;13.56;52.38
79174;BME280;68599;49.142;9.124;2023-03-23T04:41:44;98891.16;;;13.59;52.44
79174;BME280;68599;49.142;9.124;2023-03-23T04:44:11;98891.64;;;13.56;52.48
79174;BME280;68599;49.142;9.124;2023-03-23T04:46:43;98893.25;;;13.57;52.47
79174;BME280;68599;49.142;9.124;2023-03-23T04:49:10;98887.49;;;13.56;52.63
79174;BME280;68599;49.142;9.124;2023-03-23T04:51:36;98888.05;;;13.55;52.76
79174;BME280;68599;49.142;9.124;2023-03-23T04:54:01;98893.15;;;13.55;52.86
79174;BME280;68599;49.142;9.124;2023-03-23T04:56:27;98892.37;;;13.52;52.99
79174;BME280;68599;49.142;9.124;2023-03-23T04:58:52;98892.46;;;13.54;53.01
79174;BME280;68599;49.142;9.124;2023-03-23T05:01:17;98898.97;;;13.54;53.06
79174;BME280;68599;49.142;9.124;2023-03-23T05:03:43;98895.83;;;13.51;53.31
79174;BME280;68599;49.142;9.124;2023-03-23T05:06:09;98892.61;;;13.51;53.58
79174;BME280;68599;49.142;9.124;2023-03-23T05:08:35;98894.08;;;13.50;53.41
79174;BME280;68599;49.142;9.124;2023-03-23T05:11:05;98891.15;;;13.51;53.10
79174;BME280;68599;49.142;9.124;2023-03-23T05:13:31;98893.38;;;13.49;53.49
79174;BME280;68599;49.142;9.124;2023-03-23T05:15:57;98896.55;;;13.47;53.69
79174;BME280;68599;49.142;9.124;2023-03-23T05:18:23;98896.28;;;13.49;53.52
79174;BME280;68599;49.142;9.124;2023-03-23T05:20:49;98901.66;;;13.46;53.69
79174;BME280;68599;49.142;9.124;2023-03-23T05:23:18;98907.41;;;13.47;53.30
79174;BME280;68599;49.142;9.124;2023-03-23T05:25:52;98907.33;;;13.49;53.27
79174;BME280;68599;49.142;9.124;2023-03-23T05:28:18;98907.60;;;13.51;53.00
79174;BME280;68599;49.142;9.124;2023-03-23T05:30:44;98901.97;;;13.52;53.03
79174;BME280;68599;49.142;9.124;2023-03-23T05:33:09;98901.81;;;13.55;52.89
79174;BME280;68599;49.142;9.124;2023-03-23T05:35:34;98901.08;;;13.55;52.95
79174;BME280;68599;49.142;9.124;2023-03-23T05:38:00;98902.44;;;13.58;52.88
79174;BME280;68599;49.142;9.124;2023-03-23T05:40:27;98902.13;;;13.61;52.52
79174;BME280;68599;49.142;9.124;2023-03-23T05:42:53;98903.35;;;13.66;52.35
79174;BME280;68599;49.142;9.124;2023-03-23T05:45:20;98912.19;;;13.72;52.13
79174;BME280;68599;49.142;9.124;2023-03-23T05:47:46;98917.46;;;13.76;52.20
79174;BME280;68599;49.142;9.124;2023-03-23T05:50:12;98920.39;;;13.79;52.01
79174;BME280;68599;49.142;9.124;2023-03-23T05:52:38;98924.58;;;13.83;51.70
79174;BME280;68599;49.142;9.124;2023-03-23T05:55:05;98929.57;;;13.93;51.04
79174;BME280;68599;49.142;9.124;2023-03-23T05:57:32;98940.20;;;14.03;50.64
79174;BME280;68599;49.142;9.124;2023-03-23T05:59:57;98946.31;;;14.13;50.61
79174;BME280;68599;49.142;9.124;2023-03-23T06:02:24;98958.06;;;14.22;50.21
79174;BME280;68599;49.142;9.124;2023-03-23T06:04:50;98966.84;;;14.28;50.23
79174;BME280;68599;49.142;9.124;2023-03-23T06:07:22;98962.65;;;14.33;50.04
79174;BME280;68599;49.142;9.124;2023-03-23T06:09:47;98965.23;;;14.32;50.16
79174;BME280;68599;49.142;9.124;2023-03-23T06:12:14;98964.20;;;14.31;50.36
79174;BME280;68599;49.142;9.124;2023-03-23T06:14:40;98971.35;;;14.29;50.73
79174;BME280;68599;49.142;9.124;2023-03-23T06:17:06;98974.05;;;14.25;50.79
79174;BME280;68599;49.142;9.124;2023-03-23T06:19:31;98972.80;;;14.21;51.17
79174;BME280;68599;49.142;9.124;2023-03-23T06:21:57;98982.55;;;14.21;51.32
79174;BME280;68599;49.142;9.124;2023-03-23T06:24:22;98984.41;;;14.21;51.47
79174;BME280;68599;49.142;9.124;2023-03-23T06:26:48;98988.15;;;14.13;51.86
79174;BME280;68599;49.142;9.124;2023-03-23T06:29:15;98990.02;;;14.12;52.53
79174;BME280;68599;49.142;9.124;2023-03-23T06:31:46;98994.16;;;14.12;52.74
79174;BME280;68599;49.142;9.124;2023-03-23T06:34:13;98991.11;;;14.12;53.07
79174;BME280;68599;49.142;9.124;2023-03-23T06:36:40;98990.29;;;14.05;53.61
79174;BME280;68599;49.142;9.124;2023-03-23T06:39:05;98990.53;;;14.04;53.92
79174;BME280;68599;49.142;9.124;2023-03-23T06:41:32;99000.95;;;14.01;53.81
79174;BME280;68599;49.142;9.124;2023-03-23T06:43:58;98998.77;;;14.02;54.50
79174;BME280;68599;49.142;9.124;2023-03-23T06:46:25;98999.83;;;14.03;54.58
79174;BME280;68599;49.142;9.124;2023-03-23T06:48:51;98995.63;;;14.08;54.65
79174;BME280;68599;49.142;9.124;2023-03-23T06:51:17;98993.79;;;14.09;55.52
79174;BME280;68599;49.142;9.124;2023-03-23T06:53:43;98991.80;;;14.17;54.83
79174;BME280;68599;49.142;9.124;2023-03-23T06:56:08;98988.73;;;14.17;54.97
79174;BME280;68599;49.142;9.124;2023-03-23T06:58:34;98996.13;;;14.22;54.37
79174;BME280;68599;49.142;9.124;2023-03-23T07:01:00;98994.65;;;14.22;54.13
79174;BME280;68599;49.142;9.124;2023-03-23T07:03:26;98997.98;;;14.21;54.26
79174;BME280;68599;49.142;9.124;2023-03-23T07:05:53;98995.87;;;14.23;53.91
79174;BME280;68599;49.142;9.124;2023-03-23T07:08:19;98997.19;;;14.27;53.92
79174;BME280;68599;49.142;9.124;2023-03-23T07:10:46;99002.03;;;14.32;53.78
79174;BME280;68599;49.142;9.124;2023-03-23T07:13:12;99007.94;;;14.30;53.87
79174;BME280;68599;49.142;9.124;2023-03-23T07:15:38;99008.40;;;14.32;53.94
79174;BME280;68599;49.142;9.124;2023-03-23T07:18:04;99013.41;;;14.29;54.08
79174;BME280;68599;49.142;9.124;2023-03-23T07:20:30;99018.27;;;14.25;54.34
79174;BME280;68599;49.142;9.124;2023-03-23T07:22:55;99030.32;;;14.23;54.53
79174;BME280;68599;49.142;9.124;2023-03-23T07:25:21;99030.81;;;14.24;54.43
79174;BME280;68599;49.142;9.124;2023-03-23T07:27:46;99038.62;;;14.28;54.55
79174;BME280;68599;49.142;9.124;2023-03-23T07:30:13;99044.77;;;14.33;54.31
79174;BME280;68599;49.142;9.124;2023-03-23T07:32:39;99050.30;;;14.44;54.30
79174;BME280;68599;49.142;9.124;2023-03-23T07:35:05;99052.11;;;14.53;54.03
79174;BME280;68599;49.142;9.124;2023-03-23T07:37:31;99058.59;;;14.66;53.91
79174;BME280;68599;49.142;9.124;2023-03-23T07:39:57;99069.15;;;14.82;53.37
79174;BME280;68599;49.142;9.124;2023-03-23T07:42:23;99071.80;;;15.01;53.02
79174;BME280;68599;49.142;9.124;2023-03-23T07:44:49;99067.80;;;15.21;52.26
79174;BME280;68599;49.142;9.124;2023-03-23T07:47:14;99060.16;;;15.37;51.62
79174;BME280;68599;49.142;9.124;2023-03-23T07:49:39;99061.10;;;15.52;51.09
79174;BME280;68599;49.142;9.124;2023-03-23T07:52:05;99062.91;;;15.68;50.60
79174;BME280;68599;49.142;9.124;2023-03-23T07:54:30;99062.48;;;15.74;50.24
79174;BME280;68599;49.142;9.124;2023-03-23T07:56:56;99073.83;;;15.87;49.70
79174;BME280;68599;49.142;9.124;2023-03-23T07:59:21;99079.17;;;15.78;50.07
79174;BME280;68599;49.142;9.124;2023-03-23T08:01:47;99084.73;;;15.72;50.41
79174;BME280;68599;49.142;9.124;2023-03-23T08:04:12;99076.14;;;15.65;50.54
79174;BME280;68599;49.142;9.124;2023-03-23T08:06:38;99081.44;;;15.61;50.89
79174;BME280;68599;49.142;9.124;2023-03-23T08:09:05;99082.83;;;15.66;51.11
79174;BME280;68599;49.142;9.124;2023-03-23T08:11:34;99082.07;;;15.82;50.81
79174;BME280;68599;49.142;9.124;2023-03-23T08:14:00;99088.23;;;15.86;50.82
79174;BME280;68599;49.142;9.124;2023-03-23T08:16:25;99089.19;;;15.97;51.19
79174;BME280;68599;49.142;9.124;2023-03-23T08:18:51;99098.66;;;16.04;51.01
79174;BME280;68599;49.142;9.124;2023-03-23T08:21:17;99100.80;;;15.97;51.36
79174;BME280;68599;49.142;9.124;2023-03-23T08:23:42;99100.48;;;15.84;52.01
79174;BME280;68599;49.142;9.124;2023-03-23T08:26:09;99104.91;;;15.68;52.69
79174;BME280;68599;49.142;9.124;2023-03-23T08:28:35;99103.55;;;15.45;53.81
79174;BME280;68599;49.142;9.124;2023-03-23T08:31:09;99105.32;;;15.38;54.33
79174;BME280;68599;49.142;9.124;2023-03-23T08:33:36;99112.27;;;15.37;54.67
79174;BME280;68599;49.142;9.124;2023-03-23T08:36:02;99110.80;;;15.38;55.05
79174;BME280;68599;49.142;9.124;2023-03-23T08:38:28;99107.26;;;15.44;54.81
79174;BME280;68599;49.142;9.124;2023-03-23T08:40:58;99109.91;;;15.45;54.76
79174;BME280;68599;49.142;9.124;2023-03-23T08:43:24;99109.08;;;15.47;54.66
79174;BME280;68599;49.142;9.124;2023-03-23T08:45:50;99112.83;;;15.49;54.64
79174;BME280;68599;49.142;9.124;2023-03-23T08:48:15;99112.98;;;15.62;54.37
79174;BME280;68599;49.142;9.124;2023-03-23T08:50:41;99111.23;;;15.72;54.05
79174;BME280;68599;49.142;9.124;2023-03-23T08:53:07;99112.35;;;15.68;53.85
79174;BME280;68599;49.142;9.124;2023-03-23T08:55:32;99108.77;;;15.66;53.91
79174;BME280;68599;49.142;9.124;2023-03-23T08:57:57;99105.12;;;15.71;53.81
79174;BME280;68599;49.142;9.124;2023-03-23T09:00:23;99108.54;;;15.80;53.67
79174;BME280;68599;49.142;9.124;2023-03-23T09:02:53;99108.01;;;15.98;53.26
79174;BME280;68599;49.142;9.124;2023-03-23T09:05:21;99107.52;;;16.12;52.76
79174;BME280;68599;49.142;9.124;2023-03-23T09:07:48;99105.10;;;16.17;52.49
79174;BME280;68599;49.142;9.124;2023-03-23T09:10:15;99113.98;;;16.18;52.43
79174;BME280;68599;49.142;9.124;2023-03-23T09:12:42;99116.00;;;16.14;52.68
79174;BME280;68599;49.142;9.124;2023-03-23T09:15:09;99113.79;;;16.25;52.57
79174;BME280;68599;49.142;9.124;2023-03-23T09:17:36;99117.16;;;16.34;51.88
79174;BME280;68599;49.142;9.124;2023-03-23T09:20:03;99123.69;;;16.24;52.23
79174;BME280;68599;49.142;9.124;2023-03-23T09:22:32;99125.48;;;16.28;51.90
79174;BME280;68599;49.142;9.124;2023-03-23T09:24:58;99129.45;;;16.17;52.36
79174;BME280;68599;49.142;9.124;2023-03-23T09:27:23;99131.98;;;16.21;51.67
79174;BME280;68599;49.142;9.124;2023-03-23T09:29:49;99134.84;;;16.11;51.48
79174;BME280;68599;49.142;9.124;2023-03-23T09:32:14;99142.02;;;15.97;51.77
79174;BME280;68599;49.142;9.124;2023-03-23T09:34:40;99141.14;;;15.85;52.54
79174;BME280;68599;49.142;9.124;2023-03-23T09:37:06;99140.74;;;15.74;53.06
79174;BME280;68599;49.142;9.124;2023-03-23T09:39:31;99141.15;;;15.66;53.64
79174;BME280;68599;49.142;9.124;2023-03-23T09:42:10;99150.77;;;15.58;54.22
79174;BME280;68599;49.142;9.124;2023-03-23T09:45:08;99164.51;;;15.71;54.32
79174;BME280;68599;49.142;9.124;2023-03-23T09:48:09;99170.10;;;15.76;55.06
79174;BME280;68599;49.142;9.124;2023-03-23T09:50:28;99172.10;;;15.76;56.56
79174;BME280;68599;49.142;9.124;2023-03-23T09:53:15;99179.39;;;15.71;57.61
79174;BME280;68599;49.142;9.124;2023-03-23T09:55:42;99177.93;;;15.84;57.46
79174;BME280;68599;49.142;9.124;2023-03-23T09:58:25;99189.09;;;15.70;58.78
79174;BME280;68599;49.142;9.124;2023-03-23T10:01:06;99197.60;;;15.62;59.62
79174;BME280;68599;49.142;9.124;2023-03-23T10:03:39;99196.10;;;15.38;60.98
79174;BME280;68599;49.142;9.124;2023-03-23T10:06:08;99196.25;;;15.39;60.76
79174;BME280;68599;49.142;9.124;2023-03-23T10:08:34;99201.73;;;15.25;61.87
79174;BME280;68599;49.142;9.124;2023-03-23T10:11:07;99204.27;;;15.38;61.03
79174;BME280;68599;49.142;9.124;2023-03-23T10:16:29;99208.52;;;15.15;62.72
79174;BME280;68599;49.142;9.124;2023-03-23T10:19:04;99207.81;;;15.07;62.52
79174;BME280;68599;49.142;9.124;2023-03-23T10:21:36;99213.89;;;14.87;63.64
79174;BME280;68599;49.142;9.124;2023-03-23T10:24:05;99213.77;;;14.86;63.91
79174;BME280;68599;49.142;9.124;2023-03-23T10:26:48;99212.70;;;15.02;63.50
79174;BME280;68599;49.142;9.124;2023-03-23T10:29:31;99212.55;;;15.31;62.68
79174;BME280;68599;49.142;9.124;2023-03-23T10:32:01;99212.18;;;15.32;62.63
79174;BME280;68599;49.142;9.124;2023-03-23T10:34:39;99206.28;;;15.21;62.90
79174;BME280;68599;49.142;9.124;2023-03-23T10:37:11;99197.15;;;15.35;62.58
79174;BME280;68599;49.142;9.124;2023-03-23T10:39:57;99202.27;;;15.67;61.56
79174;BME280;68599;49.142;9.124;2023-03-23T10:42:30;99207.42;;;16.06;60.99
79174;BME280;68599;49.142;9.124;2023-03-23T10:44:58;99203.89;;;16.03;60.84
79174;BME280;68599;49.142;9.124;2023-03-23T10:47:24;99206.84;;;15.87;61.92
79174;BME280;68599;49.142;9.124;2023-03-23T10:49:59;99211.88;;;15.88;61.74
79174;BME280;68599;49.142;9.124;2023-03-23T10:52:33;99206.94;;;15.52;62.57
79174;BME280;68599;49.142;9.124;2023-03-23T10:57:37;99207.45;;;15.36;63.15
79174;BME280;68599;49.142;9.124;2023-03-23T11:00:23;99203.83;;;15.10;64.71
79174;BME280;68599;49.142;9.124;2023-03-23T11:05:48;99199.60;;;14.95;65.02
79174;BME280;68599;49.142;9.124;2023-03-23T11:08:24;99189.59;;;15.17;63.91
79174;BME280;68599;49.142;9.124;2023-03-23T11:13:44;99180.35;;;15.62;62.87
79174;BME280;68599;49.142;9.124;2023-03-23T11:16:29;99180.36;;;15.86;61.47
79174;BME280;68599;49.142;9.124;2023-03-23T11:18:57;99177.01;;;15.80;61.85
79174;BME280;68599;49.142;9.124;2023-03-23T11:21:24;99178.41;;;16.00;61.08
79174;BME280;68599;49.142;9.124;2023-03-23T11:23:53;99178.11;;;16.11;60.10
79174;BME280;68599;49.142;9.124;2023-03-23T11:26:26;99179.46;;;16.05;60.20
79174;BME280;68599;49.142;9.124;2023-03-23T11:29:10;99179.52;;;16.04;59.76
79174;BME280;68599;49.142;9.124;2023-03-23T11:31:45;99185.45;;;15.90;59.98
79174;BME280;68599;49.142;9.124;2023-03-23T11:34:19;99186.51;;;15.94;59.73
79174;BME280;68599;49.142;9.124;2023-03-23T11:36:52;99192.36;;;15.90;59.37
79174;BME280;68599;49.142;9.124;2023-03-23T11:39:24;99196.01;;;15.78;59.36
79174;BME280;68599;49.142;9.124;2023-03-23T11:41:52;99194.89;;;15.74;59.19
79174;BME280;68599;49.142;9.124;2023-03-23T11:44:18;99195.48;;;15.81;58.48
79174;BME280;68599;49.142;9.124;2023-03-23T11:47:02;99195.98;;;15.86;58.35
79174;BME280;68599;49.142;9.124;2023-03-23T11:50:08;99200.11;;;16.15;57.81
79174;BME280;68599;49.142;9.124;2023-03-23T11:55:14;99211.48;;;16.24;57.46
79174;BME280;68599;49.142;9.124;2023-03-23T11:57:41;99215.91;;;16.27;57.48
79174;BME280;68599;49.142;9.124;2023-03-23T12:00:13;99214.12;;;16.48;56.97
79174;BME280;68599;49.142;9.124;2023-03-23T12:05:44;99211.20;;;17.12;55.16
79174;BME280;68599;49.142;9.124;2023-03-23T12:08:23;99214.47;;;17.30;54.68
79174;BME280;68599;49.142;9.124;2023-03-23T12:16:47;99201.33;;;17.45;53.41
79174;BME280;68599;49.142;9.124;2023-03-23T12:19:43;99205.70;;;17.66;52.56
79174;BME280;68599;49.142;9.124;2023-03-23T12:25:12;99197.71;;;17.44;52.45
79174;BME280;68599;49.142;9.124;2023-03-23T12:30:27;99183.51;;;16.69;53.72
79174;BME280;68599;49.142;9.124;2023-03-23T12:33:09;99176.89;;;16.44;54.11
79174;BME280;68599;49.142;9.124;2023-03-23T12:46:26;99166.32;;;16.64;53.88
79174;BME280;68599;49.142;9.124;2023-03-23T12:49:01;99170.09;;;16.61;53.12
79174;BME280;68599;49.142;9.124;2023-03-23T12:51:42;99167.74;;;16.56;52.68
79174;BME280;68599;49.142;9.124;2023-03-23T12:54:32;99175.04;;;16.56;52.49
79174;BME280;68599;49.142;9.124;2023-03-23T13:03:02;99162.29;;;16.37;52.65
79174;BME280;68599;49.142;9.124;2023-03-23T13:05:44;99156.02;;;16.39;52.51
79174;BME280;68599;49.142;9.124;2023-03-23T13:08:16;99149.47;;;16.39;52.96
79174;BME280;68599;49.142;9.124;2023-03-23T13:10:49;99148.37;;;16.51;52.92
79174;BME280;68599;49.142;9.124;2023-03-23T13:13:24;99141.31;;;16.62;52.12
79174;BME280;68599;49.142;9.124;2023-03-23T13:16:07;99131.90;;;16.68;51.75
79174;BME280;68599;49.142;9.124;2023-03-23T13:18:57;99116.16;;;16.77;51.45
79174;BME280;68599;49.142;9.124;2023-03-23T13:21:27;99118.92;;;16.83;51.41
79174;BME280;68599;49.142;9.124;2023-03-23T13:26:24;99119.86;;;17.18;50.76
79174;BME280;68599;49.142;9.124;2023-03-23T13:33:53;99113.43;;;17.05;50.96
79174;BME280;68599;49.142;9.124;2023-03-23T13:36:42;99109.23;;;16.95;51.19
79174;BME280;68599;49.142;9.124;2023-03-23T13:39:21;99106.89;;;16.95;51.12
79174;BME280;68599;49.142;9.124;2023-03-23T13:57:55;99074.77;;;16.68;52.60
79174;BME280;68599;49.142;9.124;2023-03-23T14:00:36;99073.80;;;16.90;52.06
79174;BME280;68599;49.142;9.124;2023-03-23T14:05:40;99066.88;;;17.11;51.55
79174;BME280;68599;49.142;9.124;2023-03-23T14:16:23;99067.30;;;17.30;50.99
79174;BME280;68599;49.142;9.124;2023-03-23T14:18:52;99066.78;;;17.23;51.18
79174;BME280;68599;49.142;9.124;2023-03-23T14:21:39;99064.34;;;17.11;51.47
79174;BME280;68599;49.142;9.124;2023-03-23T14:24:15;99060.20;;;16.96;52.06
79174;BME280;68599;49.142;9.124;2023-03-23T14:26:41;99065.40;;;16.98;51.56
79174;BME280;68599;49.142;9.124;2023-03-23T14:29:11;99066.05;;;16.82;51.97
79174;BME280;68599;49.142;9.124;2023-03-23T14:31:38;99064.97;;;16.68;52.18
79174;BME280;68599;49.142;9.124;2023-03-23T14:34:12;99065.71;;;16.52;52.50
79174;BME280;68599;49.142;9.124;2023-03-23T14:36:39;99064.60;;;16.31;53.34
79174;BME280;68599;49.142;9.124;2023-03-23T14:39:23;99070.27;;;16.20;53.50
79174;BME280;68599;49.142;9.124;2023-03-23T14:41:51;99070.47;;;16.04;54.16
79174;BME280;68599;49.142;9.124;2023-03-23T14:44:31;99075.91;;;15.89;54.60